Terminal Aerodrome Forecast
Issued by NWS Shreveport, LA

Home | Current Version | Previous Version | Text Only | Print | Product List | Glossary On
Versions: 1 2 3 4 5 6 7 8 9 10 11 12 13 14
000
FTUS44 KSHV 292200 AAA
TAFSHV
TAF AMD
KSHV 292259Z 2923/3018 16010G16KT P6SM VCTS SCT040CB SCT090 BKN290
      TEMPO 2923/3001 VRB14G25KT 3SM -TSRA OVC030CB
     FM300100 16006KT P6SM VCSH SCT050 BKN120 BKN250
     FM300500 15004KT P6SM BKN120 BKN250
     FM301100 VRB04KT P6SM SCT008 BKN013
     FM301400 VRB05KT P6SM VCSH BKN008=

USA.gov is the U.S. government's official web portal to all federal, state and local government web resources and services.